sensor_id;sensor_type;location;lat;lon;timestamp;temperature;humidity
72440;DHT22;60446;50.752;4.352;2023-03-05T00:01:27;4.60;70.40
72440;DHT22;60446;50.752;4.352;2023-03-05T00:03:56;4.60;70.70
72440;DHT22;60446;50.752;4.352;2023-03-05T00:06:25;4.60;70.80
72440;DHT22;60446;50.752;4.352;2023-03-05T00:08:55;4.60;70.70
72440;DHT22;60446;50.752;4.352;2023-03-05T00:11:25;4.70;70.40
72440;DHT22;60446;50.752;4.352;2023-03-05T00:13:56;4.70;70.50
72440;DHT22;60446;50.752;4.352;2023-03-05T00:16:25;4.60;70.70
72440;DHT22;60446;50.752;4.352;2023-03-05T00:18:54;4.60;70.90
72440;DHT22;60446;50.752;4.352;2023-03-05T00:21:34;4.50;71.30
72440;DHT22;60446;50.752;4.352;2023-03-05T00:24:06;4.50;71.60
72440;DHT22;60446;50.752;4.352;2023-03-05T00:26:43;4.50;71.90
72440;DHT22;60446;50.752;4.352;2023-03-05T00:29:14;4.50;71.90
72440;DHT22;60446;50.752;4.352;2023-03-05T00:31:44;4.50;71.70
72440;DHT22;60446;50.752;4.352;2023-03-05T00:34:14;4.50;71.50
72440;DHT22;60446;50.752;4.352;2023-03-05T00:36:44;4.60;71.30
72440;DHT22;60446;50.752;4.352;2023-03-05T00:39:13;4.50;71.50
72440;DHT22;60446;50.752;4.352;2023-03-05T00:41:40;4.50;71.50
72440;DHT22;60446;50.752;4.352;2023-03-05T00:44:08;4.50;71.60
72440;DHT22;60446;50.752;4.352;2023-03-05T00:46:36;4.50;71.50
72440;DHT22;60446;50.752;4.352;2023-03-05T00:49:03;4.50;71.20
72440;DHT22;60446;50.752;4.352;2023-03-05T00:51:30;4.40;71.50
72440;DHT22;60446;50.752;4.352;2023-03-05T00:53:58;4.40;71.80
72440;DHT22;60446;50.752;4.352;2023-03-05T00:56:26;4.30;72.30
72440;DHT22;60446;50.752;4.352;2023-03-05T00:58:53;4.40;71.90
72440;DHT22;60446;50.752;4.352;2023-03-05T01:01:21;4.40;71.90
72440;DHT22;60446;50.752;4.352;2023-03-05T01:03:49;4.30;71.90
72440;DHT22;60446;50.752;4.352;2023-03-05T01:06:16;4.30;71.90
72440;DHT22;60446;50.752;4.352;2023-03-05T01:08:44;4.40;71.70
72440;DHT22;60446;50.752;4.352;2023-03-05T01:11:12;4.40;71.50
72440;DHT22;60446;50.752;4.352;2023-03-05T01:13:39;4.20;71.90
72440;DHT22;60446;50.752;4.352;2023-03-05T01:16:07;4.20;72.20
72440;DHT22;60446;50.752;4.352;2023-03-05T01:18:36;4.10;72.70
72440;DHT22;60446;50.752;4.352;2023-03-05T01:21:04;4.10;72.80
72440;DHT22;60446;50.752;4.352;2023-03-05T01:23:32;4.00;72.80
72440;DHT22;60446;50.752;4.352;2023-03-05T01:26:01;4.10;73.00
72440;DHT22;60446;50.752;4.352;2023-03-05T01:28:28;4.00;72.90
72440;DHT22;60446;50.752;4.352;2023-03-05T01:30:55;4.10;73.00
72440;DHT22;60446;50.752;4.352;2023-03-05T01:33:22;4.10;73.00
72440;DHT22;60446;50.752;4.352;2023-03-05T01:35:49;4.00;73.40
72440;DHT22;60446;50.752;4.352;2023-03-05T01:38:17;4.00;73.60
72440;DHT22;60446;50.752;4.352;2023-03-05T01:40:44;3.90;73.60
72440;DHT22;60446;50.752;4.352;2023-03-05T01:52:14;3.80;74.50
72440;DHT22;60446;50.752;4.352;2023-03-05T01:55:07;3.90;74.40
72440;DHT22;60446;50.752;4.352;2023-03-05T01:57:47;4.00;74.00
72440;DHT22;60446;50.752;4.352;2023-03-05T02:00:19;4.00;74.10
72440;DHT22;60446;50.752;4.352;2023-03-05T02:02:51;4.00;74.20
72440;DHT22;60446;50.752;4.352;2023-03-05T02:05:31;4.00;74.20
72440;DHT22;60446;50.752;4.352;2023-03-05T02:08:02;3.90;74.40
72440;DHT22;60446;50.752;4.352;2023-03-05T02:10:34;3.90;74.80
72440;DHT22;60446;50.752;4.352;2023-03-05T02:13:09;3.80;75.20
72440;DHT22;60446;50.752;4.352;2023-03-05T02:15:40;3.80;75.40
72440;DHT22;60446;50.752;4.352;2023-03-05T02:18:08;3.80;75.50
72440;DHT22;60446;50.752;4.352;2023-03-05T02:20:46;3.90;75.20
72440;DHT22;60446;50.752;4.352;2023-03-05T02:23:19;4.00;75.00
72440;DHT22;60446;50.752;4.352;2023-03-05T02:25:47;4.00;74.90
72440;DHT22;60446;50.752;4.352;2023-03-05T02:28:23;3.90;75.30
72440;DHT22;60446;50.752;4.352;2023-03-05T02:30:53;3.90;75.70
72440;DHT22;60446;50.752;4.352;2023-03-05T02:33:20;3.80;75.70
72440;DHT22;60446;50.752;4.352;2023-03-05T02:35:48;3.90;75.80
72440;DHT22;60446;50.752;4.352;2023-03-05T02:38:17;3.80;76.00
72440;DHT22;60446;50.752;4.352;2023-03-05T02:40:46;3.90;75.90
72440;DHT22;60446;50.752;4.352;2023-03-05T02:43:14;3.80;76.10
72440;DHT22;60446;50.752;4.352;2023-03-05T02:45:42;3.90;76.20
72440;DHT22;60446;50.752;4.352;2023-03-05T02:48:09;3.80;76.20
72440;DHT22;60446;50.752;4.352;2023-03-05T02:50:36;3.80;76.70
72440;DHT22;60446;50.752;4.352;2023-03-05T02:53:05;3.80;76.80
72440;DHT22;60446;50.752;4.352;2023-03-05T02:55:33;3.80;76.70
72440;DHT22;60446;50.752;4.352;2023-03-05T02:58:01;3.70;76.90
72440;DHT22;60446;50.752;4.352;2023-03-05T03:00:28;3.80;76.90
72440;DHT22;60446;50.752;4.352;2023-03-05T03:02:55;3.70;77.20
72440;DHT22;60446;50.752;4.352;2023-03-05T03:05:22;3.80;77.30
72440;DHT22;60446;50.752;4.352;2023-03-05T03:07:50;3.80;77.00
72440;DHT22;60446;50.752;4.352;2023-03-05T03:10:18;3.80;77.00
72440;DHT22;60446;50.752;4.352;2023-03-05T03:12:45;3.70;77.40
72440;DHT22;60446;50.752;4.352;2023-03-05T03:15:13;3.70;77.20
72440;DHT22;60446;50.752;4.352;2023-03-05T03:17:41;3.70;77.10
72440;DHT22;60446;50.752;4.352;2023-03-05T03:20:11;3.70;77.00
72440;DHT22;60446;50.752;4.352;2023-03-05T03:22:41;3.70;77.20
72440;DHT22;60446;50.752;4.352;2023-03-05T03:25:14;3.70;77.40
72440;DHT22;60446;50.752;4.352;2023-03-05T03:27:43;3.70;77.50
72440;DHT22;60446;50.752;4.352;2023-03-05T03:30:11;3.70;77.30
72440;DHT22;60446;50.752;4.352;2023-03-05T03:32:39;3.70;77.30
72440;DHT22;60446;50.752;4.352;2023-03-05T03:35:07;3.70;77.60
72440;DHT22;60446;50.752;4.352;2023-03-05T03:37:35;3.70;77.60
72440;DHT22;60446;50.752;4.352;2023-03-05T03:40:04;3.70;77.80
72440;DHT22;60446;50.752;4.352;2023-03-05T03:42:31;3.70;77.90
72440;DHT22;60446;50.752;4.352;2023-03-05T03:44:59;3.60;78.60
72440;DHT22;60446;50.752;4.352;2023-03-05T03:47:29;3.60;79.10
72440;DHT22;60446;50.752;4.352;2023-03-05T03:49:56;3.60;79.30
72440;DHT22;60446;50.752;4.352;2023-03-05T03:52:25;3.70;79.10
72440;DHT22;60446;50.752;4.352;2023-03-05T03:54:52;3.70;79.00
72440;DHT22;60446;50.752;4.352;2023-03-05T03:57:21;3.70;79.30
72440;DHT22;60446;50.752;4.352;2023-03-05T03:59:48;3.60;79.40
72440;DHT22;60446;50.752;4.352;2023-03-05T04:02:16;3.60;79.70
72440;DHT22;60446;50.752;4.352;2023-03-05T04:04:44;3.70;79.30
72440;DHT22;60446;50.752;4.352;2023-03-05T04:07:11;3.60;79.40
72440;DHT22;60446;50.752;4.352;2023-03-05T04:09:39;3.60;79.60
72440;DHT22;60446;50.752;4.352;2023-03-05T04:12:06;3.60;79.60
72440;DHT22;60446;50.752;4.352;2023-03-05T04:14:33;3.60;79.60
72440;DHT22;60446;50.752;4.352;2023-03-05T04:17:01;3.60;79.50
72440;DHT22;60446;50.752;4.352;2023-03-05T04:19:28;3.60;79.50
72440;DHT22;60446;50.752;4.352;2023-03-05T04:21:57;3.60;79.60
72440;DHT22;60446;50.752;4.352;2023-03-05T04:24:25;3.60;79.50
72440;DHT22;60446;50.752;4.352;2023-03-05T04:26:52;3.60;79.60
72440;DHT22;60446;50.752;4.352;2023-03-05T04:29:19;3.50;79.90
72440;DHT22;60446;50.752;4.352;2023-03-05T04:31:46;3.60;79.40
72440;DHT22;60446;50.752;4.352;2023-03-05T04:34:14;3.60;79.40
72440;DHT22;60446;50.752;4.352;2023-03-05T04:36:41;3.50;79.50
72440;DHT22;60446;50.752;4.352;2023-03-05T04:39:08;3.40;80.10
72440;DHT22;60446;50.752;4.352;2023-03-05T04:41:35;3.50;80.20
72440;DHT22;60446;50.752;4.352;2023-03-05T04:44:02;3.50;80.00
72440;DHT22;60446;50.752;4.352;2023-03-05T04:46:29;3.50;79.80
72440;DHT22;60446;50.752;4.352;2023-03-05T04:48:57;3.50;79.90
72440;DHT22;60446;50.752;4.352;2023-03-05T04:51:24;3.40;80.10
72440;DHT22;60446;50.752;4.352;2023-03-05T04:53:51;3.50;80.30
72440;DHT22;60446;50.752;4.352;2023-03-05T04:56:19;3.40;80.20
72440;DHT22;60446;50.752;4.352;2023-03-05T04:58:46;3.40;80.20
72440;DHT22;60446;50.752;4.352;2023-03-05T05:01:13;3.40;80.30
72440;DHT22;60446;50.752;4.352;2023-03-05T05:03:40;3.40;80.10
72440;DHT22;60446;50.752;4.352;2023-03-05T05:06:08;3.30;80.50
72440;DHT22;60446;50.752;4.352;2023-03-05T05:08:35;3.30;80.80
72440;DHT22;60446;50.752;4.352;2023-03-05T05:11:05;3.40;80.80
72440;DHT22;60446;50.752;4.352;2023-03-05T05:13:34;3.50;80.20
72440;DHT22;60446;50.752;4.352;2023-03-05T05:16:01;3.40;80.40
72440;DHT22;60446;50.752;4.352;2023-03-05T05:18:32;3.40;80.40
72440;DHT22;60446;50.752;4.352;2023-03-05T05:20:59;3.40;80.60
72440;DHT22;60446;50.752;4.352;2023-03-05T05:23:26;3.40;80.60
72440;DHT22;60446;50.752;4.352;2023-03-05T05:25:58;3.40;80.40
72440;DHT22;60446;50.752;4.352;2023-03-05T05:28:26;3.40;80.40
72440;DHT22;60446;50.752;4.352;2023-03-05T05:30:54;3.40;80.60
72440;DHT22;60446;50.752;4.352;2023-03-05T05:33:22;3.40;80.40
72440;DHT22;60446;50.752;4.352;2023-03-05T05:35:50;3.30;80.60
72440;DHT22;60446;50.752;4.352;2023-03-05T05:38:17;3.20;80.90
72440;DHT22;60446;50.752;4.352;2023-03-05T05:40:44;3.20;81.10
72440;DHT22;60446;50.752;4.352;2023-03-05T05:43:11;3.20;81.20
72440;DHT22;60446;50.752;4.352;2023-03-05T05:45:39;3.20;81.20
72440;DHT22;60446;50.752;4.352;2023-03-05T05:48:06;3.30;81.00
72440;DHT22;60446;50.752;4.352;2023-03-05T05:50:33;3.40;80.90
72440;DHT22;60446;50.752;4.352;2023-03-05T05:53:00;3.40;80.60
72440;DHT22;60446;50.752;4.352;2023-03-05T05:55:27;3.30;80.80
72440;DHT22;60446;50.752;4.352;2023-03-05T05:57:55;3.40;80.80
72440;DHT22;60446;50.752;4.352;2023-03-05T06:00:22;3.30;81.00
72440;DHT22;60446;50.752;4.352;2023-03-05T06:02:49;3.30;81.10
72440;DHT22;60446;50.752;4.352;2023-03-05T06:05:17;3.30;81.40
72440;DHT22;60446;50.752;4.352;2023-03-05T06:07:44;3.30;81.20
72440;DHT22;60446;50.752;4.352;2023-03-05T06:10:11;3.30;81.30
72440;DHT22;60446;50.752;4.352;2023-03-05T06:12:39;3.30;81.40
72440;DHT22;60446;50.752;4.352;2023-03-05T06:15:06;3.30;81.60
72440;DHT22;60446;50.752;4.352;2023-03-05T06:17:34;3.30;81.30
72440;DHT22;60446;50.752;4.352;2023-03-05T06:20:01;3.30;81.10
72440;DHT22;60446;50.752;4.352;2023-03-05T06:22:30;3.20;81.40
72440;DHT22;60446;50.752;4.352;2023-03-05T06:24:57;3.20;81.40
72440;DHT22;60446;50.752;4.352;2023-03-05T06:27:24;3.20;81.70
72440;DHT22;60446;50.752;4.352;2023-03-05T06:29:52;3.30;81.20
72440;DHT22;60446;50.752;4.352;2023-03-05T06:32:20;3.30;81.20
72440;DHT22;60446;50.752;4.352;2023-03-05T06:34:47;3.30;81.20
72440;DHT22;60446;50.752;4.352;2023-03-05T06:37:15;3.30;81.40
72440;DHT22;60446;50.752;4.352;2023-03-05T06:39:43;3.40;81.20
72440;DHT22;60446;50.752;4.352;2023-03-05T06:42:10;3.40;81.10
72440;DHT22;60446;50.752;4.352;2023-03-05T06:44:40;3.40;80.90
72440;DHT22;60446;50.752;4.352;2023-03-05T06:47:08;3.50;80.80
72440;DHT22;60446;50.752;4.352;2023-03-05T06:49:37;3.40;81.00
72440;DHT22;60446;50.752;4.352;2023-03-05T06:52:05;3.50;80.90
72440;DHT22;60446;50.752;4.352;2023-03-05T06:54:35;3.50;80.50
72440;DHT22;60446;50.752;4.352;2023-03-05T06:57:03;3.30;80.80
72440;DHT22;60446;50.752;4.352;2023-03-05T06:59:30;3.30;81.40
72440;DHT22;60446;50.752;4.352;2023-03-05T07:01:57;3.50;81.00
72440;DHT22;60446;50.752;4.352;2023-03-05T07:04:24;3.50;80.70
72440;DHT22;60446;50.752;4.352;2023-03-05T07:06:51;3.50;81.10
72440;DHT22;60446;50.752;4.352;2023-03-05T07:09:18;3.50;81.10
72440;DHT22;60446;50.752;4.352;2023-03-05T07:11:45;3.50;81.00
72440;DHT22;60446;50.752;4.352;2023-03-05T07:14:12;3.60;80.90
72440;DHT22;60446;50.752;4.352;2023-03-05T07:16:40;3.60;80.90
72440;DHT22;60446;50.752;4.352;2023-03-05T07:19:07;3.60;80.30
72440;DHT22;60446;50.752;4.352;2023-03-05T07:21:36;3.60;80.60
72440;DHT22;60446;50.752;4.352;2023-03-05T07:24:06;3.70;80.50
72440;DHT22;60446;50.752;4.352;2023-03-05T07:26:34;3.80;80.70
72440;DHT22;60446;50.752;4.352;2023-03-05T07:29:02;3.80;80.50
72440;DHT22;60446;50.752;4.352;2023-03-05T07:31:30;3.80;80.50
72440;DHT22;60446;50.752;4.352;2023-03-05T07:33:59;3.80;80.20
72440;DHT22;60446;50.752;4.352;2023-03-05T07:36:28;3.90;80.60
72440;DHT22;60446;50.752;4.352;2023-03-05T07:38:56;3.90;80.50
72440;DHT22;60446;50.752;4.352;2023-03-05T07:41:23;3.80;80.10
72440;DHT22;60446;50.752;4.352;2023-03-05T07:43:52;3.90;80.30
72440;DHT22;60446;50.752;4.352;2023-03-05T07:46:25;3.90;79.70
72440;DHT22;60446;50.752;4.352;2023-03-05T07:48:54;3.80;79.50
72440;DHT22;60446;50.752;4.352;2023-03-05T07:51:23;3.80;79.90
72440;DHT22;60446;50.752;4.352;2023-03-05T07:53:52;3.80;80.10
72440;DHT22;60446;50.752;4.352;2023-03-05T07:56:32;3.90;80.20
72440;DHT22;60446;50.752;4.352;2023-03-05T07:59:06;3.90;79.80
72440;DHT22;60446;50.752;4.352;2023-03-05T08:01:36;4.00;79.70
72440;DHT22;60446;50.752;4.352;2023-03-05T08:04:05;4.10;79.60
72440;DHT22;60446;50.752;4.352;2023-03-05T08:06:32;4.00;78.90
72440;DHT22;60446;50.752;4.352;2023-03-05T08:09:00;4.10;80.00
72440;DHT22;60446;50.752;4.352;2023-03-05T08:11:27;4.10;79.90
72440;DHT22;60446;50.752;4.352;2023-03-05T08:13:54;4.30;79.90
72440;DHT22;60446;50.752;4.352;2023-03-05T08:16:25;4.20;78.50
72440;DHT22;60446;50.752;4.352;2023-03-05T08:18:56;4.30;79.40
72440;DHT22;60446;50.752;4.352;2023-03-05T08:21:26;4.30;79.10
72440;DHT22;60446;50.752;4.352;2023-03-05T08:24:01;4.30;78.30
72440;DHT22;60446;50.752;4.352;2023-03-05T08:26:32;4.40;78.40
72440;DHT22;60446;50.752;4.352;2023-03-05T08:29:01;4.50;78.40
72440;DHT22;60446;50.752;4.352;2023-03-05T08:31:30;4.40;77.60
72440;DHT22;60446;50.752;4.352;2023-03-05T08:33:59;4.50;78.20
72440;DHT22;60446;50.752;4.352;2023-03-05T08:36:27;4.50;77.40
72440;DHT22;60446;50.752;4.352;2023-03-05T08:38:55;4.60;77.70
72440;DHT22;60446;50.752;4.352;2023-03-05T08:41:22;4.60;77.70
72440;DHT22;60446;50.752;4.352;2023-03-05T08:43:49;4.80;77.70
72440;DHT22;60446;50.752;4.352;2023-03-05T08:46:17;4.80;76.70
72440;DHT22;60446;50.752;4.352;2023-03-05T08:48:44;4.90;77.10
72440;DHT22;60446;50.752;4.352;2023-03-05T08:51:20;4.90;76.40
72440;DHT22;60446;50.752;4.352;2023-03-05T08:53:52;5.00;76.90
72440;DHT22;60446;50.752;4.352;2023-03-05T08:56:20;5.00;76.70
72440;DHT22;60446;50.752;4.352;2023-03-05T08:58:48;5.10;76.20
72440;DHT22;60446;50.752;4.352;2023-03-05T09:01:15;5.10;75.60
72440;DHT22;60446;50.752;4.352;2023-03-05T09:03:44;5.20;75.00
72440;DHT22;60446;50.752;4.352;2023-03-05T09:06:12;5.30;75.10
72440;DHT22;60446;50.752;4.352;2023-03-05T09:08:39;5.40;75.20
72440;DHT22;60446;50.752;4.352;2023-03-05T09:11:08;5.50;75.20
72440;DHT22;60446;50.752;4.352;2023-03-05T09:13:36;5.50;74.60
72440;DHT22;60446;50.752;4.352;2023-03-05T09:16:06;5.60;74.30
72440;DHT22;60446;50.752;4.352;2023-03-05T09:18:34;5.80;73.50
72440;DHT22;60446;50.752;4.352;2023-03-05T09:21:07;5.70;73.30
72440;DHT22;60446;50.752;4.352;2023-03-05T09:23:36;5.90;73.20
72440;DHT22;60446;50.752;4.352;2023-03-05T09:26:05;5.80;71.80
72440;DHT22;60446;50.752;4.352;2023-03-05T09:28:34;5.70;71.00
72440;DHT22;60446;50.752;4.352;2023-03-05T09:31:03;5.80;72.60
72440;DHT22;60446;50.752;4.352;2023-03-05T09:33:32;5.80;71.70
72440;DHT22;60446;50.752;4.352;2023-03-05T09:36:00;5.80;72.50
72440;DHT22;60446;50.752;4.352;2023-03-05T09:38:28;5.80;73.20
72440;DHT22;60446;50.752;4.352;2023-03-05T09:41:04;5.70;71.60
72440;DHT22;60446;50.752;4.352;2023-03-05T09:52:45;5.40;72.30
72440;DHT22;60446;50.752;4.352;2023-03-05T09:55:31;5.60;72.90
72440;DHT22;60446;50.752;4.352;2023-03-05T09:58:51;5.80;72.50
72440;DHT22;60446;50.752;4.352;2023-03-05T10:01:19;5.70;71.30
72440;DHT22;60446;50.752;4.352;2023-03-05T10:03:58;5.70;71.80
72440;DHT22;60446;50.752;4.352;2023-03-05T10:06:33;5.80;71.60
72440;DHT22;60446;50.752;4.352;2023-03-05T10:12:59;5.80;71.10
72440;DHT22;60446;50.752;4.352;2023-03-05T10:15:40;5.70;72.30
72440;DHT22;60446;50.752;4.352;2023-03-05T10:24:09;4.30;74.80
72440;DHT22;60446;50.752;4.352;2023-03-05T10:27:47;3.80;75.00
72440;DHT22;60446;50.752;4.352;2023-03-05T10:36:43;3.30;79.80
72440;DHT22;60446;50.752;4.352;2023-03-05T10:39:15;3.40;79.90
72440;DHT22;60446;50.752;4.352;2023-03-05T10:42:07;3.40;80.80
72440;DHT22;60446;50.752;4.352;2023-03-05T10:44:51;3.50;79.70
72440;DHT22;60446;50.752;4.352;2023-03-05T10:47:58;3.60;80.50
72440;DHT22;60446;50.752;4.352;2023-03-05T10:50:25;3.70;79.30
72440;DHT22;60446;50.752;4.352;2023-03-05T10:53:11;3.70;79.80
72440;DHT22;60446;50.752;4.352;2023-03-05T10:55:41;3.70;80.00
72440;DHT22;60446;50.752;4.352;2023-03-05T10:58:14;3.80;80.20
72440;DHT22;60446;50.752;4.352;2023-03-05T11:06:39;4.20;80.70
72440;DHT22;60446;50.752;4.352;2023-03-05T11:12:04;4.40;80.20
72440;DHT22;60446;50.752;4.352;2023-03-05T11:15:20;4.40;79.90
72440;DHT22;60446;50.752;4.352;2023-03-05T11:18:06;4.40;79.10
72440;DHT22;60446;50.752;4.352;2023-03-05T11:20:41;4.70;78.80
72440;DHT22;60446;50.752;4.352;2023-03-05T11:23:20;4.70;77.70
72440;DHT22;60446;50.752;4.352;2023-03-05T11:25:51;4.80;75.50
72440;DHT22;60446;50.752;4.352;2023-03-05T11:28:22;4.90;78.00
72440;DHT22;60446;50.752;4.352;2023-03-05T11:36:42;4.90;74.40
72440;DHT22;60446;50.752;4.352;2023-03-05T11:39:31;5.10;73.80
72440;DHT22;60446;50.752;4.352;2023-03-05T11:42:09;5.30;76.00
72440;DHT22;60446;50.752;4.352;2023-03-05T11:44:48;5.60;76.30
72440;DHT22;60446;50.752;4.352;2023-03-05T11:53:10;5.60;76.10
72440;DHT22;60446;50.752;4.352;2023-03-05T11:55:51;5.70;75.40
72440;DHT22;60446;50.752;4.352;2023-03-05T12:00:55;5.80;76.50
72440;DHT22;60446;50.752;4.352;2023-03-05T12:03:34;5.80;76.30
72440;DHT22;60446;50.752;4.352;2023-03-05T12:08:42;5.70;75.20
72440;DHT22;60446;50.752;4.352;2023-03-05T12:11:18;5.80;76.60
72440;DHT22;60446;50.752;4.352;2023-03-05T12:13:53;5.90;75.10
72440;DHT22;60446;50.752;4.352;2023-03-05T12:21:56;5.70;73.90
72440;DHT22;60446;50.752;4.352;2023-03-05T12:26:55;5.50;74.70
72440;DHT22;60446;50.752;4.352;2023-03-05T12:29:42;5.70;73.80
72440;DHT22;60446;50.752;4.352;2023-03-05T12:40:29;6.20;74.00
72440;DHT22;60446;50.752;4.352;2023-03-05T12:43:26;6.60;75.70
72440;DHT22;60446;50.752;4.352;2023-03-05T12:46:21;6.60;72.20
72440;DHT22;60446;50.752;4.352;2023-03-05T12:48:49;6.70;72.90
72440;DHT22;60446;50.752;4.352;2023-03-05T12:51:35;6.70;73.30
72440;DHT22;60446;50.752;4.352;2023-03-05T12:54:26;6.60;71.70
72440;DHT22;60446;50.752;4.352;2023-03-05T12:57:05;6.60;72.10
72440;DHT22;60446;50.752;4.352;2023-03-05T13:00:05;6.70;73.70
72440;DHT22;60446;50.752;4.352;2023-03-05T13:02:41;6.70;71.30
72440;DHT22;60446;50.752;4.352;2023-03-05T13:05:22;6.70;69.90
72440;DHT22;60446;50.752;4.352;2023-03-05T13:10:54;6.30;71.70
72440;DHT22;60446;50.752;4.352;2023-03-05T13:13:27;6.20;73.30
72440;DHT22;60446;50.752;4.352;2023-03-05T13:15:56;6.10;73.80
72440;DHT22;60446;50.752;4.352;2023-03-05T13:18:28;5.90;74.20
72440;DHT22;60446;50.752;4.352;2023-03-05T13:21:04;6.00;76.00
72440;DHT22;60446;50.752;4.352;2023-03-05T13:23:34;6.00;72.90
72440;DHT22;60446;50.752;4.352;2023-03-05T13:26:18;5.90;72.30
72440;DHT22;60446;50.752;4.352;2023-03-05T13:32:01;5.60;72.10
72440;DHT22;60446;50.752;4.352;2023-03-05T13:34:43;5.30;70.10
72440;DHT22;60446;50.752;4.352;2023-03-05T13:37:20;5.20;71.50
72440;DHT22;60446;50.752;4.352;2023-03-05T13:40:00;5.10;69.20
72440;DHT22;60446;50.752;4.352;2023-03-05T13:42:34;5.20;69.80
72440;DHT22;60446;50.752;4.352;2023-03-05T13:45:06;5.20;69.40
72440;DHT22;60446;50.752;4.352;2023-03-05T13:50:37;5.90;68.80
72440;DHT22;60446;50.752;4.352;2023-03-05T13:53:28;6.00;68.20
72440;DHT22;60446;50.752;4.352;2023-03-05T13:56:00;6.00;68.70
72440;DHT22;60446;50.752;4.352;2023-03-05T13:59:00;6.10;68.40
72440;DHT22;60446;50.752;4.352;2023-03-05T14:01:34;6.10;68.50
72440;DHT22;60446;50.752;4.352;2023-03-05T14:07:27;5.80;68.60
72440;DHT22;60446;50.752;4.352;2023-03-05T14:09:57;5.30;71.00
72440;DHT22;60446;50.752;4.352;2023-03-05T14:12:37;5.00;72.70
72440;DHT22;60446;50.752;4.352;2023-03-05T14:15:36;4.90;72.00
72440;DHT22;60446;50.752;4.352;2023-03-05T14:18:21;4.70;72.10
72440;DHT22;60446;50.752;4.352;2023-03-05T14:21:09;4.70;73.90
72440;DHT22;60446;50.752;4.352;2023-03-05T14:23:42;4.70;72.90
72440;DHT22;60446;50.752;4.352;2023-03-05T14:26:34;4.60;73.80
72440;DHT22;60446;50.752;4.352;2023-03-05T14:31:46;4.80;73.50
72440;DHT22;60446;50.752;4.352;2023-03-05T14:34:40;4.70;72.70
72440;DHT22;60446;50.752;4.352;2023-03-05T14:37:21;4.60;72.20
72440;DHT22;60446;50.752;4.352;2023-03-05T14:40:03;4.50;71.60
72440;DHT22;60446;50.752;4.352;2023-03-05T14:42:35;4.40;73.10
72440;DHT22;60446;50.752;4.352;2023-03-05T14:45:17;4.40;71.90
72440;DHT22;60446;50.752;4.352;2023-03-05T14:47:48;4.40;72.30
72440;DHT22;60446;50.752;4.352;2023-03-05T14:50:20;4.50;71.70
72440;DHT22;60446;50.752;4.352;2023-03-05T14:53:05;4.60;72.40
72440;DHT22;60446;50.752;4.352;2023-03-05T14:55:35;4.60;71.40
72440;DHT22;60446;50.752;4.352;2023-03-05T14:58:11;4.70;70.40
72440;DHT22;60446;50.752;4.352;2023-03-05T15:00:40;4.70;70.90
72440;DHT22;60446;50.752;4.352;2023-03-05T15:03:12;4.60;72.60
72440;DHT22;60446;50.752;4.352;2023-03-05T15:05:42;4.70;70.50
72440;DHT22;60446;50.752;4.352;2023-03-05T15:08:19;4.70;70.20
72440;DHT22;60446;50.752;4.352;2023-03-05T15:10:48;4.60;70.60
72440;DHT22;60446;50.752;4.352;2023-03-05T15:13:15;4.60;70.40
72440;DHT22;60446;50.752;4.352;2023-03-05T15:15:44;4.60;70.20
72440;DHT22;60446;50.752;4.352;2023-03-05T15:18:13;4.60;70.60
72440;DHT22;60446;50.752;4.352;2023-03-05T15:20:42;4.70;71.00
72440;DHT22;60446;50.752;4.352;2023-03-05T15:23:11;4.60;71.10
72440;DHT22;60446;50.752;4.352;2023-03-05T15:25:39;4.60;71.50
72440;DHT22;60446;50.752;4.352;2023-03-05T15:28:06;4.60;72.30
72440;DHT22;60446;50.752;4.352;2023-03-05T15:30:40;4.50;72.20
72440;DHT22;60446;50.752;4.352;2023-03-05T15:33:15;4.50;73.30
72440;DHT22;60446;50.752;4.352;2023-03-05T15:35:43;4.50;73.90
72440;DHT22;60446;50.752;4.352;2023-03-05T15:38:10;4.60;74.30
72440;DHT22;60446;50.752;4.352;2023-03-05T15:40:38;4.70;74.60
72440;DHT22;60446;50.752;4.352;2023-03-05T15:43:05;4.70;73.10
72440;DHT22;60446;50.752;4.352;2023-03-05T15:45:32;4.60;73.00
72440;DHT22;60446;50.752;4.352;2023-03-05T15:47:59;4.60;73.50
72440;DHT22;60446;50.752;4.352;2023-03-05T15:50:26;4.60;74.70
72440;DHT22;60446;50.752;4.352;2023-03-05T15:52:54;4.60;75.30
72440;DHT22;60446;50.752;4.352;2023-03-05T15:55:21;4.70;76.00
72440;DHT22;60446;50.752;4.352;2023-03-05T15:57:50;4.70;76.00
72440;DHT22;60446;50.752;4.352;2023-03-05T16:00:24;4.70;74.40
72440;DHT22;60446;50.752;4.352;2023-03-05T16:02:53;4.70;74.50
72440;DHT22;60446;50.752;4.352;2023-03-05T16:05:21;4.60;76.10
72440;DHT22;60446;50.752;4.352;2023-03-05T16:07:49;4.60;77.00
72440;DHT22;60446;50.752;4.352;2023-03-05T16:10:23;4.50;76.00
72440;DHT22;60446;50.752;4.352;2023-03-05T16:13:00;4.40;74.60
72440;DHT22;60446;50.752;4.352;2023-03-05T16:15:32;4.40;74.30
72440;DHT22;60446;50.752;4.352;2023-03-05T16:18:03;4.40;74.30
72440;DHT22;60446;50.752;4.352;2023-03-05T16:20:32;4.40;72.70
72440;DHT22;60446;50.752;4.352;2023-03-05T16:23:02;4.40;71.80
72440;DHT22;60446;50.752;4.352;2023-03-05T16:25:30;4.30;74.10
72440;DHT22;60446;50.752;4.352;2023-03-05T16:27:57;4.20;75.00
72440;DHT22;60446;50.752;4.352;2023-03-05T16:30:24;3.90;74.20
72440;DHT22;60446;50.752;4.352;2023-03-05T16:32:52;3.90;75.50
72440;DHT22;60446;50.752;4.352;2023-03-05T16:35:19;3.80;74.40
72440;DHT22;60446;50.752;4.352;2023-03-05T16:37:47;3.80;76.10
72440;DHT22;60446;50.752;4.352;2023-03-05T16:40:14;3.80;77.20
72440;DHT22;60446;50.752;4.352;2023-03-05T16:42:42;3.80;77.10
72440;DHT22;60446;50.752;4.352;2023-03-05T16:45:11;3.70;77.10
72440;DHT22;60446;50.752;4.352;2023-03-05T16:47:38;3.70;77.60
72440;DHT22;60446;50.752;4.352;2023-03-05T16:50:08;3.60;76.90
72440;DHT22;60446;50.752;4.352;2023-03-05T16:52:36;3.70;76.80
72440;DHT22;60446;50.752;4.352;2023-03-05T16:55:04;3.60;77.80
72440;DHT22;60446;50.752;4.352;2023-03-05T16:57:31;3.60;78.30
72440;DHT22;60446;50.752;4.352;2023-03-05T16:59:59;3.60;78.50
72440;DHT22;60446;50.752;4.352;2023-03-05T17:02:29;3.60;79.10
72440;DHT22;60446;50.752;4.352;2023-03-05T17:04:57;3.50;77.70
72440;DHT22;60446;50.752;4.352;2023-03-05T17:07:24;3.40;78.30
72440;DHT22;60446;50.752;4.352;2023-03-05T17:09:52;3.50;78.40
72440;DHT22;60446;50.752;4.352;2023-03-05T17:12:20;3.60;79.30
72440;DHT22;60446;50.752;4.352;2023-03-05T17:14:49;3.50;79.30
72440;DHT22;60446;50.752;4.352;2023-03-05T17:17:16;3.50;78.90
72440;DHT22;60446;50.752;4.352;2023-03-05T17:19:43;3.50;78.90
72440;DHT22;60446;50.752;4.352;2023-03-05T17:22:10;3.60;79.10
72440;DHT22;60446;50.752;4.352;2023-03-05T17:24:38;3.60;79.20
72440;DHT22;60446;50.752;4.352;2023-03-05T17:27:09;3.50;80.40
72440;DHT22;60446;50.752;4.352;2023-03-05T17:29:36;3.60;79.80
72440;DHT22;60446;50.752;4.352;2023-03-05T17:32:03;3.60;79.60
72440;DHT22;60446;50.752;4.352;2023-03-05T17:34:31;3.70;79.20
72440;DHT22;60446;50.752;4.352;2023-03-05T17:37:03;3.60;79.30
72440;DHT22;60446;50.752;4.352;2023-03-05T17:39:31;3.60;79.50
72440;DHT22;60446;50.752;4.352;2023-03-05T17:41:59;3.50;80.50